createdAt,value
2017-11-25T00:00:48.339Z,99788
2017-11-25T00:01:47.322Z,99788
2017-11-25T00:02:48.464Z,99791
2017-11-25T00:03:48.531Z,99783
2017-11-25T00:04:47.560Z,99788
2017-11-25T00:05:48.543Z,99786
2017-11-25T00:06:48.548Z,99788
2017-11-25T00:07:47.716Z,99791
2017-11-25T00:08:47.685Z,99792
2017-11-25T00:09:48.694Z,99792
2017-11-25T00:10:48.762Z,99786
2017-11-25T00:11:47.983Z,99785
2017-11-25T00:12:48.878Z,99791
2017-11-25T00:13:47.981Z,99783
2017-11-25T00:14:49.126Z,99784
2017-11-25T00:15:49.178Z,99786
2017-11-25T00:16:48.101Z,99785
2017-11-25T00:17:49.092Z,99782
2017-11-25T00:18:48.278Z,99784
2017-11-25T00:19:49.340Z,99784
2017-11-25T00:20:48.356Z,99775
2017-11-25T00:21:49.471Z,99772
2017-11-25T00:22:49.487Z,99769
2017-11-25T00:23:48.467Z,99768
2017-11-25T00:24:49.440Z,99766
2017-11-25T00:25:48.612Z,99765
2017-11-25T00:26:48.636Z,99762
2017-11-25T00:27:49.539Z,99759
2017-11-25T00:28:48.647Z,99758
2017-11-25T00:29:48.773Z,99756
2017-11-25T00:30:49.846Z,99754
2017-11-25T00:31:48.798Z,99751
2017-11-25T00:32:48.934Z,99749
2017-11-25T00:33:48.856Z,99747
2017-11-25T00:34:48.975Z,99744
2017-11-25T00:35:49.937Z,99746
2017-11-25T00:36:50.124Z,99743
2017-11-25T00:37:50.130Z,99738
2017-11-25T00:38:50.172Z,99738
2017-11-25T00:39:50.150Z,99730
2017-11-25T00:40:50.194Z,99732
2017-11-25T00:41:49.347Z,99718
2017-11-25T00:42:50.411Z,99725
2017-11-25T00:43:49.494Z,99721
2017-11-25T00:44:50.510Z,99724
2017-11-25T00:45:49.540Z,99723
2017-11-25T00:46:49.567Z,99726
2017-11-25T00:47:49.686Z,99727
2017-11-25T00:48:49.624Z,99721
2017-11-25T00:49:50.598Z,99714
2017-11-25T00:50:50.807Z,99712
2017-11-25T00:51:49.812Z,99706
2017-11-25T00:52:49.898Z,99714
2017-11-25T00:53:50.870Z,99711
2017-11-25T00:54:51.038Z,99712
2017-11-25T00:55:50.017Z,99708
2017-11-25T00:56:51.086Z,99712
2017-11-25T00:57:51.003Z,99714
2017-11-25T00:58:50.135Z,99714
2017-11-25T00:59:50.115Z,99711
2017-11-25T01:00:51.228Z,99706
2017-11-25T01:01:50.238Z,99714
2017-11-25T01:02:51.225Z,99711
2017-11-25T01:03:51.344Z,99713
2017-11-25T01:04:51.424Z,99710
2017-11-25T01:05:51.386Z,99708
2017-11-25T01:06:51.480Z,99711
2017-11-25T01:07:50.601Z,99709
2017-11-25T01:08:50.716Z,99712
2017-11-25T01:09:51.716Z,99709
2017-11-25T01:10:50.809Z,99712
2017-11-25T01:11:50.903Z,99716
2017-11-25T01:12:50.855Z,99712
2017-11-25T01:13:52.021Z,99718
2017-11-25T01:14:51.936Z,99716
2017-11-25T01:15:50.974Z,99716
2017-11-25T01:16:51.001Z,99718
2017-11-25T01:17:51.972Z,99719
2017-11-25T01:18:51.105Z,99721
2017-11-25T01:19:52.112Z,99720
2017-11-25T01:20:51.290Z,99719
2017-11-25T01:21:51.351Z,99718
2017-11-25T01:22:52.780Z,99715
2017-11-25T01:23:52.422Z,99717
2017-11-25T01:24:51.468Z,99718
2017-11-25T01:25:52.370Z,99707
2017-11-25T01:26:52.525Z,99724
2017-11-25T01:27:51.615Z,99721
2017-11-25T01:28:51.557Z,99726
2017-11-25T01:29:52.571Z,99726
2017-11-25T01:30:52.616Z,99726
2017-11-25T01:31:51.824Z,99728
2017-11-25T01:32:51.844Z,99730
2017-11-25T01:33:51.932Z,99731
2017-11-25T01:34:51.847Z,99725
2017-11-25T01:35:51.859Z,99725
2017-11-25T01:36:51.973Z,99724
2017-11-25T01:37:52.272Z,99724
2017-11-25T01:38:53.020Z,99720
2017-11-25T01:39:52.110Z,99722
2017-11-25T01:40:52.161Z,99728
2017-11-25T01:41:52.353Z,99728
2017-11-25T01:42:53.378Z,99729
2017-11-25T01:43:52.363Z,99728
2017-11-25T01:44:53.448Z,99733
2017-11-25T01:45:53.522Z,99725
2017-11-25T01:46:52.602Z,99732
2017-11-25T01:47:52.513Z,99728
2017-11-25T01:48:53.597Z,99726
2017-11-25T01:49:53.523Z,99731
2017-11-25T01:50:53.502Z,99729
2017-11-25T01:51:53.543Z,99727
2017-11-25T01:52:52.655Z,99735
2017-11-25T01:53:53.700Z,99736
2017-11-25T01:54:52.835Z,99746
2017-11-25T01:55:53.850Z,99738
2017-11-25T01:56:52.860Z,99746
2017-11-25T01:57:53.827Z,99739
2017-11-25T01:58:52.965Z,99740
2017-11-25T01:59:53.008Z,99737
2017-11-25T02:00:53.340Z,99744
2017-11-25T02:01:53.141Z,99740
2017-11-25T02:02:54.134Z,99739
2017-11-25T02:03:54.098Z,99735
2017-11-25T02:04:54.239Z,99735
2017-11-25T02:05:54.303Z,99735
2017-11-25T02:06:53.348Z,99732
2017-11-25T02:07:53.513Z,99732
2017-11-25T02:08:54.386Z,99730
2017-11-25T02:09:54.454Z,99731
2017-11-25T02:10:54.528Z,99731
2017-11-25T02:11:54.595Z,99724
2017-11-25T02:12:53.733Z,99726
2017-11-25T02:13:53.919Z,99733
2017-11-25T02:14:53.823Z,99732
2017-11-25T02:15:54.798Z,99735
2017-11-25T02:16:53.945Z,99728
2017-11-25T02:17:54.823Z,99731
2017-11-25T02:18:53.955Z,99733
2017-11-25T02:19:54.995Z,99738
2017-11-25T02:20:53.978Z,99736
2017-11-25T02:21:54.173Z,99727
2017-11-25T02:22:55.070Z,99732
2017-11-25T02:23:55.220Z,99735
2017-11-25T02:24:55.123Z,99728
2017-11-25T02:25:54.284Z,99729
2017-11-25T02:26:54.377Z,99726
2017-11-25T02:27:55.428Z,99719
2017-11-25T02:28:55.485Z,99719
2017-11-25T02:29:55.453Z,99725
2017-11-25T02:30:55.533Z,99724
2017-11-25T02:31:55.622Z,99727
2017-11-25T02:32:55.717Z,99726
2017-11-25T02:33:55.799Z,99727
2017-11-25T02:34:55.817Z,99729
2017-11-25T02:35:54.899Z,99722
2017-11-25T02:36:55.892Z,99726
2017-11-25T02:37:55.986Z,99722
2017-11-25T02:38:55.146Z,99723
2017-11-25T02:39:55.142Z,99720
2017-11-25T02:40:56.246Z,99710
2017-11-25T02:41:56.340Z,99716
2017-11-25T02:42:55.434Z,99710
2017-11-25T02:43:55.436Z,99712
2017-11-25T02:44:56.592Z,99711
2017-11-25T02:45:55.676Z,99702
2017-11-25T02:46:56.574Z,99704
2017-11-25T02:47:56.556Z,99688
2017-11-25T02:48:56.565Z,99689
2017-11-25T02:49:55.700Z,99693
2017-11-25T02:50:56.647Z,99686
2017-11-25T02:51:56.787Z,99689
2017-11-25T02:52:56.708Z,99685
2017-11-25T02:53:55.884Z,99686
2017-11-25T02:54:56.858Z,99685
2017-11-25T02:55:56.843Z,99684
2017-11-25T02:56:56.845Z,99686
2017-11-25T02:57:56.880Z,99683
2017-11-25T02:58:56.922Z,99679
2017-11-25T02:59:56.020Z,99678
2017-11-25T03:00:56.034Z,99680
2017-11-25T03:01:56.048Z,99681
2017-11-25T03:02:56.149Z,99670
2017-11-25T03:03:57.174Z,99669
2017-11-25T03:04:56.253Z,99676
2017-11-25T03:05:56.329Z,99672
2017-11-25T03:06:57.440Z,99669
2017-11-25T03:07:56.533Z,99669
2017-11-25T03:08:57.404Z,99666
2017-11-25T03:09:57.486Z,99668
2017-11-25T03:10:57.618Z,99665
2017-11-25T03:11:56.702Z,99664
2017-11-25T03:12:57.711Z,99660
2017-11-25T03:13:57.657Z,99651
2017-11-25T03:14:57.758Z,99661
2017-11-25T03:15:57.864Z,99660
2017-11-25T03:16:57.001Z,99657
2017-11-25T03:17:56.966Z,99657
2017-11-25T03:18:56.982Z,99659
2017-11-25T03:19:58.121Z,99659
2017-11-25T03:20:58.053Z,99655
2017-11-25T03:21:57.344Z,99653
2017-11-25T03:22:58.110Z,99648
2017-11-25T03:23:58.179Z,99650
2017-11-25T03:24:57.377Z,99643
2017-11-25T03:25:57.375Z,99640
2017-11-25T03:26:57.440Z,99640
2017-11-25T03:27:57.450Z,99643
2017-11-25T03:28:57.554Z,99641
2017-11-25T03:29:58.440Z,99643
2017-11-25T03:30:58.545Z,99653
2017-11-25T03:31:57.661Z,99659
2017-11-25T03:32:57.668Z,99653
2017-11-25T03:33:58.787Z,99662
2017-11-25T03:34:57.724Z,99654
2017-11-25T03:35:57.785Z,99662
2017-11-25T03:36:58.965Z,99660
2017-11-25T03:37:58.074Z,99652
2017-11-25T03:38:59.123Z,99651
2017-11-25T03:39:59.144Z,99653
2017-11-25T03:40:58.181Z,99647
2017-11-25T03:41:58.186Z,99652
2017-11-25T03:42:59.298Z,99654
2017-11-25T03:43:58.345Z,99653
2017-11-25T03:44:58.433Z,99644
2017-11-25T03:45:59.329Z,99652
2017-11-25T03:46:58.376Z,99651
2017-11-25T03:47:58.502Z,99653
2017-11-25T03:48:59.563Z,99649
2017-11-25T03:49:58.643Z,99649
2017-11-25T03:50:59.533Z,99651
2017-11-25T03:51:58.767Z,99651
2017-11-25T03:52:58.756Z,99646
2017-11-25T03:53:58.880Z,99647
2017-11-25T03:54:58.816Z,99646
2017-11-25T03:55:58.837Z,99641
2017-11-25T03:56:59.912Z,99633
2017-11-25T03:57:58.927Z,99628
2017-11-25T03:59:00.017Z,99634
2017-11-25T03:59:59.956Z,99638
2017-11-25T04:01:00.140Z,99636
2017-11-25T04:02:00.075Z,99639
2017-11-25T04:03:00.163Z,99640
2017-11-25T04:04:00.226Z,99638
2017-11-25T04:05:00.297Z,99637
2017-11-25T04:06:00.341Z,99643
2017-11-25T04:07:00.455Z,99639
2017-11-25T04:08:00.630Z,99637
2017-11-25T04:08:59.651Z,99637
2017-11-25T04:10:00.641Z,99636
2017-11-25T04:11:00.612Z,99640
2017-11-25T04:11:59.703Z,99640
2017-11-25T04:12:59.831Z,99633
2017-11-25T04:14:00.700Z,99633
2017-11-25T04:14:59.843Z,99622
2017-11-25T04:16:00.808Z,99622
2017-11-25T04:17:00.989Z,99633
2017-11-25T04:18:01.062Z,99630
2017-11-25T04:19:01.157Z,99635
2017-11-25T04:20:01.212Z,99629
2017-11-25T04:21:00.292Z,99624
2017-11-25T04:22:00.267Z,99620
2017-11-25T04:23:01.368Z,99622
2017-11-25T04:24:00.360Z,99623
2017-11-25T04:25:00.369Z,99617
2017-11-25T04:26:00.485Z,99607
2017-11-25T04:27:01.464Z,99602
2017-11-25T04:28:01.512Z,99603
2017-11-25T04:29:00.530Z,99598
2017-11-25T04:30:01.539Z,99602
2017-11-25T04:31:01.623Z,99602
2017-11-25T04:32:00.649Z,99601
2017-11-25T04:33:01.634Z,99602
2017-11-25T04:34:01.690Z,99603
2017-11-25T04:35:01.805Z,99606
2017-11-25T04:36:01.818Z,99615
2017-11-25T04:37:01.810Z,99610
2017-11-25T04:38:01.001Z,99612
2017-11-25T04:39:01.889Z,99615
2017-11-25T04:40:01.089Z,99611
2017-11-25T04:41:01.102Z,99609
2017-11-25T04:42:01.088Z,99605
2017-11-25T04:43:01.222Z,99600
2017-11-25T04:44:01.122Z,99602
2017-11-25T04:45:01.332Z,99606
2017-11-25T04:46:02.224Z,99602
2017-11-25T04:47:02.420Z,99603
2017-11-25T04:48:01.402Z,99595
2017-11-25T04:49:01.420Z,99586
2017-11-25T04:50:02.399Z,99583
2017-11-25T04:51:01.498Z,99589
2017-11-25T04:52:01.622Z,99588
2017-11-25T04:53:01.664Z,99593
2017-11-25T04:54:02.779Z,99597
2017-11-25T04:55:01.827Z,99598
2017-11-25T04:56:02.769Z,99596
2017-11-25T04:57:02.803Z,99589
2017-11-25T04:58:02.918Z,99591
2017-11-25T04:59:02.840Z,99591
2017-11-25T05:00:01.921Z,99584
2017-11-25T05:01:01.957Z,99582
2017-11-25T05:02:02.102Z,99576
2017-11-25T05:03:03.139Z,99577
2017-11-25T05:04:02.112Z,99572
2017-11-25T05:05:03.228Z,99571
2017-11-25T05:06:03.178Z,99568
2017-11-25T05:07:03.287Z,99571
2017-11-25T05:08:02.277Z,99576
2017-11-25T05:09:03.248Z,99572
2017-11-25T05:10:03.387Z,99571
2017-11-25T05:11:03.431Z,99572
2017-11-25T05:12:03.455Z,99577
2017-11-25T05:13:03.527Z,99582
2017-11-25T05:14:02.450Z,99577
2017-11-25T05:15:03.606Z,99581
2017-11-25T05:16:03.639Z,99580
2017-11-25T05:17:03.693Z,99583
2017-11-25T05:18:02.761Z,99588
2017-11-25T05:19:02.675Z,99587
2017-11-25T05:20:03.759Z,99576
2017-11-25T05:21:03.831Z,99588
2017-11-25T05:22:03.741Z,99579
2017-11-25T05:23:02.811Z,99582
2017-11-25T05:24:03.804Z,99584
2017-11-25T05:25:04.018Z,99588
2017-11-25T05:26:03.909Z,99586
2017-11-25T05:27:04.008Z,99581
2017-11-25T05:28:04.205Z,99583
2017-11-25T05:29:04.390Z,99581
2017-11-25T05:31:04.306Z,99586
2017-11-25T05:32:03.297Z,99583
2017-11-25T05:33:03.396Z,99585
2017-11-25T05:34:04.515Z,99580
2017-11-25T05:35:04.748Z,99583
2017-11-25T05:36:03.600Z,99578
2017-11-25T05:37:03.557Z,99584
2017-11-25T05:38:03.589Z,99589
2017-11-25T05:39:03.785Z,99593
2017-11-25T05:40:04.767Z,99596
2017-11-25T05:41:04.794Z,99597
2017-11-25T05:42:03.767Z,99596
2017-11-25T05:43:04.840Z,99601
2017-11-25T05:44:04.898Z,99602
2017-11-25T05:45:03.979Z,99600
2017-11-25T05:46:04.066Z,99600
2017-11-25T05:47:04.965Z,99598
2017-11-25T05:48:05.020Z,99596
2017-11-25T05:49:04.171Z,99598
2017-11-25T05:50:04.095Z,99591
2017-11-25T05:51:04.204Z,99602
2017-11-25T05:52:05.184Z,99594
2017-11-25T05:53:04.182Z,99596
2017-11-25T05:54:04.306Z,99601
2017-11-25T05:55:05.190Z,99601
2017-11-25T05:56:04.217Z,99605
2017-11-25T05:57:04.334Z,99608
2017-11-25T05:58:05.302Z,99607
2017-11-25T05:59:05.334Z,99610
2017-11-25T06:00:04.409Z,99611
2017-11-25T06:01:05.457Z,99607
2017-11-25T06:02:05.615Z,99604
2017-11-25T06:03:05.540Z,99602
2017-11-25T06:04:05.593Z,99604
2017-11-25T06:05:05.582Z,99601
2017-11-25T06:06:04.666Z,99596
2017-11-25T06:07:05.761Z,99599
2017-11-25T06:08:05.686Z,99596
2017-11-25T06:09:05.897Z,99600
2017-11-25T06:10:04.900Z,99601
2017-11-25T06:11:05.991Z,99604
2017-11-25T06:12:05.936Z,99609
2017-11-25T06:13:05.119Z,99604
2017-11-25T06:14:06.191Z,99602
2017-11-25T06:15:06.127Z,99603
2017-11-25T06:16:05.305Z,99596
2017-11-25T06:17:06.339Z,99600
2017-11-25T06:18:06.284Z,99595
2017-11-25T06:19:05.402Z,99598
2017-11-25T06:20:05.534Z,99594
2017-11-25T06:21:05.474Z,99591
2017-11-25T06:22:05.590Z,99600
2017-11-25T06:23:06.621Z,99594
2017-11-25T06:24:05.726Z,99605
2017-11-25T06:25:06.808Z,99605
2017-11-25T06:26:05.851Z,99604
2017-11-25T06:27:06.815Z,99610
2017-11-25T06:28:06.956Z,99614
2017-11-25T06:29:08.618Z,99615
2017-11-25T06:30:06.913Z,99606
2017-11-25T06:31:06.935Z,99616
2017-11-25T06:32:06.049Z,99616
2017-11-25T06:33:06.168Z,99614
2017-11-25T06:34:07.213Z,99617
2017-11-25T06:35:06.240Z,99615
2017-11-25T06:36:06.353Z,99613
2017-11-25T06:37:07.349Z,99614
2017-11-25T06:38:07.419Z,99613
2017-11-25T06:39:06.507Z,99614
2017-11-25T06:40:06.490Z,99615
2017-11-25T06:41:07.574Z,99614
2017-11-25T06:42:06.672Z,99616
2017-11-25T06:43:06.600Z,99619
2017-11-25T06:44:07.702Z,99606
2017-11-25T06:45:07.719Z,99613
2017-11-25T06:46:06.828Z,99612
2017-11-25T06:47:07.724Z,99614
2017-11-25T06:48:07.796Z,99605
2017-11-25T06:49:07.033Z,99606
2017-11-25T06:50:06.953Z,99604
2017-11-25T06:51:07.958Z,99613
2017-11-25T06:52:07.083Z,99611
2017-11-25T06:53:08.175Z,99613
2017-11-25T06:54:08.136Z,99616
2017-11-25T06:55:07.310Z,99614
2017-11-25T06:56:08.238Z,99621
2017-11-25T06:57:08.401Z,99616
2017-11-25T06:58:08.307Z,99620
2017-11-25T06:59:07.443Z,99620
2017-11-25T07:00:07.461Z,99622
2017-11-25T07:01:07.476Z,99625
2017-11-25T07:02:07.596Z,99622
2017-11-25T07:03:07.610Z,99632
2017-11-25T07:04:07.541Z,99629
2017-11-25T07:05:07.700Z,99633
2017-11-25T07:06:07.762Z,99646
2017-11-25T07:07:07.756Z,99644
2017-11-25T07:08:08.742Z,99648
2017-11-25T07:09:07.806Z,99651
2017-11-25T07:10:07.938Z,99653
2017-11-25T07:11:07.946Z,99652
2017-11-25T07:12:07.948Z,99653
2017-11-25T07:13:07.971Z,99655
2017-11-25T07:14:07.860Z,99659
2017-11-25T07:15:07.929Z,99657
2017-11-25T07:16:07.954Z,99658
2017-11-25T07:17:09.025Z,99661
2017-11-25T07:18:08.059Z,99664
2017-11-25T07:19:08.167Z,99667
2017-11-25T07:20:09.165Z,99667
2017-11-25T07:21:08.140Z,99656
2017-11-25T07:22:08.271Z,99657
2017-11-25T07:23:09.262Z,99664
2017-11-25T07:24:09.232Z,99664
2017-11-25T07:25:08.395Z,99670
2017-11-25T07:26:09.277Z,99672
2017-11-25T07:27:08.391Z,99673
2017-11-25T07:28:09.511Z,99676
2017-11-25T07:29:08.459Z,99669
2017-11-25T07:30:08.577Z,99674
2017-11-25T07:31:08.606Z,99686
2017-11-25T07:32:08.541Z,99681
2017-11-25T07:33:08.693Z,99681
2017-11-25T07:34:08.733Z,99682
2017-11-25T07:35:08.836Z,99686
2017-11-25T07:36:09.757Z,99683
2017-11-25T07:37:08.829Z,99684
2017-11-25T07:38:09.851Z,99683
2017-11-25T07:39:09.905Z,99690
2017-11-25T07:40:09.965Z,99696
2017-11-25T07:41:09.986Z,99699
2017-11-25T07:42:09.098Z,99695
2017-11-25T07:43:09.231Z,99700
2017-11-25T07:44:09.232Z,99699
2017-11-25T07:45:10.256Z,99701
2017-11-25T07:46:09.272Z,99700
2017-11-25T07:47:09.396Z,99701
2017-11-25T07:48:10.309Z,99701
2017-11-25T07:49:09.470Z,99703
2017-11-25T07:50:10.438Z,99706
2017-11-25T07:51:10.499Z,99706
2017-11-25T07:52:09.489Z,99706
2017-11-25T07:53:10.479Z,99707
2017-11-25T07:54:09.709Z,99706
2017-11-25T07:55:09.678Z,99708
2017-11-25T07:56:09.742Z,99706
2017-11-25T07:57:10.883Z,99707
2017-11-25T07:58:09.904Z,99709
2017-11-25T07:59:10.880Z,99713
2017-11-25T08:00:10.895Z,99715
2017-11-25T08:01:09.868Z,99718
2017-11-25T08:02:10.949Z,99718
2017-11-25T08:03:10.879Z,99723
2017-11-25T08:04:10.972Z,99717
2017-11-25T08:05:10.091Z,99687
2017-11-25T08:06:11.084Z,99714
2017-11-25T08:07:10.207Z,99723
2017-11-25T08:08:11.117Z,99719
2017-11-25T08:09:10.295Z,99723
2017-11-25T08:10:11.275Z,99730
2017-11-25T08:11:11.236Z,99733
2017-11-25T08:12:10.436Z,99731
2017-11-25T08:13:10.389Z,99728
2017-11-25T08:14:11.427Z,99731
2017-11-25T08:15:11.613Z,99732
2017-11-25T08:16:11.552Z,99734
2017-11-25T08:17:11.750Z,99735
2017-11-25T08:18:10.848Z,99729
2017-11-25T08:19:10.924Z,99740
2017-11-25T08:20:11.882Z,99738
2017-11-25T08:21:12.000Z,99738
2017-11-25T08:22:11.950Z,99743
2017-11-25T08:23:12.118Z,99745
2017-11-25T08:24:11.124Z,99747
2017-11-25T08:25:12.024Z,99750
2017-11-25T08:26:11.248Z,99750
2017-11-25T08:27:11.189Z,99754
2017-11-25T08:28:12.305Z,99756
2017-11-25T08:29:12.273Z,99754
2017-11-25T08:30:12.290Z,99754
2017-11-25T08:31:12.334Z,99757
2017-11-25T08:32:11.449Z,99749
2017-11-25T08:33:11.489Z,99752
2017-11-25T08:34:11.701Z,99754
2017-11-25T08:35:11.705Z,99756
2017-11-25T08:36:12.684Z,99758
2017-11-25T08:37:12.722Z,99759
2017-11-25T08:38:11.872Z,99759
2017-11-25T08:39:11.789Z,99759
2017-11-25T08:40:11.940Z,99763
2017-11-25T08:41:12.863Z,99764
2017-11-25T08:42:13.010Z,99760
2017-11-25T08:43:13.031Z,99761
2017-11-25T08:44:13.119Z,99763
2017-11-25T08:45:12.047Z,99765
2017-11-25T08:46:12.108Z,99765
2017-11-25T08:47:12.143Z,99766
2017-11-25T08:48:12.295Z,99763
2017-11-25T08:49:12.238Z,99767
2017-11-25T08:50:12.258Z,99769
2017-11-25T08:51:12.359Z,99771
2017-11-25T08:52:13.442Z,99774
2017-11-25T08:53:12.376Z,99777
2017-11-25T08:54:13.517Z,99780
2017-11-25T08:55:12.515Z,99779
2017-11-25T08:56:13.591Z,99779
2017-11-25T08:57:13.654Z,99779
2017-11-25T08:58:13.711Z,99779
2017-11-25T08:59:12.679Z,99790
2017-11-25T09:00:13.783Z,99790
2017-11-25T09:01:13.848Z,99795
2017-11-25T09:02:13.901Z,99784
2017-11-25T09:03:13.939Z,99795
2017-11-25T09:04:14.019Z,99789
2017-11-25T09:05:13.123Z,99798
2017-11-25T09:06:13.126Z,99796
2017-11-25T09:07:14.204Z,99799
2017-11-25T09:08:13.142Z,99800
2017-11-25T09:09:13.247Z,99799
2017-11-25T09:10:14.108Z,99796
2017-11-25T09:11:14.260Z,99803
2017-11-25T09:12:13.293Z,99800
2017-11-25T09:13:14.320Z,99799
2017-11-25T09:14:13.398Z,99802
2017-11-25T09:15:14.571Z,99803
2017-11-25T09:16:13.598Z,99802
2017-11-25T09:17:13.590Z,99802
2017-11-25T09:18:13.729Z,99808
2017-11-25T09:19:13.700Z,99808
2017-11-25T09:20:13.818Z,99805
2017-11-25T09:21:13.810Z,99806
2017-11-25T09:22:14.846Z,99802
2017-11-25T09:23:13.866Z,99808
2017-11-25T09:24:15.014Z,99808
2017-11-25T09:25:13.939Z,99810
2017-11-25T09:26:14.923Z,99815
2017-11-25T09:27:14.123Z,99813
2017-11-25T09:28:14.126Z,99817
2017-11-25T09:29:14.992Z,99814
2017-11-25T09:30:15.183Z,99807
2017-11-25T09:31:14.145Z,99807
2017-11-25T09:32:15.102Z,99816
2017-11-25T09:33:15.141Z,99815
2017-11-25T09:34:15.150Z,99814
2017-11-25T09:35:14.268Z,99811
2017-11-25T09:36:14.295Z,99811
2017-11-25T09:37:14.457Z,99811
2017-11-25T09:38:15.351Z,99810
2017-11-25T09:39:15.483Z,99807
2017-11-25T09:40:14.505Z,99808
2017-11-25T09:41:15.481Z,99806
2017-11-25T09:42:14.409Z,99804
2017-11-25T09:43:15.432Z,99806
2017-11-25T09:44:14.686Z,99804
2017-11-25T09:45:14.734Z,99805
2017-11-25T09:46:15.721Z,99800
2017-11-25T09:47:14.705Z,99804
2017-11-25T09:48:14.847Z,99801
2017-11-25T09:49:15.725Z,99801
2017-11-25T09:50:15.886Z,99804
2017-11-25T09:51:14.948Z,99807
2017-11-25T09:52:15.916Z,99813
2017-11-25T09:53:16.025Z,99809
2017-11-25T09:54:15.982Z,99801
2017-11-25T09:55:16.059Z,99803
2017-11-25T09:56:15.204Z,99813
2017-11-25T09:57:15.252Z,99809
2017-11-25T09:58:15.259Z,99814
2017-11-25T09:59:15.368Z,99816
2017-11-25T10:00:16.368Z,99819
2017-11-25T10:01:16.492Z,99821
2017-11-25T10:02:16.579Z,99818
2017-11-25T10:03:16.590Z,99815
2017-11-25T10:04:15.561Z,99822
2017-11-25T10:05:16.725Z,99828
2017-11-25T10:06:15.777Z,99828
2017-11-25T10:07:15.804Z,99827
2017-11-25T10:08:16.703Z,99830
2017-11-25T10:09:15.834Z,99833
2017-11-25T10:10:15.833Z,99830
2017-11-25T10:11:15.879Z,99829
2017-11-25T10:12:16.980Z,99835
2017-11-25T10:13:16.896Z,99832
2017-11-25T10:14:17.030Z,99831
2017-11-25T10:15:16.954Z,99830
2017-11-25T10:16:16.174Z,99833
2017-11-25T10:17:16.253Z,99832
2017-11-25T10:18:16.277Z,99831
2017-11-25T10:19:16.302Z,99835
2017-11-25T10:20:17.180Z,99833
2017-11-25T10:21:17.391Z,99837
2017-11-25T10:22:17.467Z,99839
2017-11-25T10:23:16.567Z,99829
2017-11-25T10:24:17.631Z,99831
2017-11-25T10:25:16.705Z,99828
2017-11-25T10:26:17.611Z,99830
2017-11-25T10:27:17.704Z,99823
2017-11-25T10:28:16.870Z,99831
2017-11-25T10:29:16.788Z,99823
2017-11-25T10:30:17.780Z,99826
2017-11-25T10:31:17.971Z,99828
2017-11-25T10:32:16.956Z,99826
2017-11-25T10:33:17.119Z,99823
2017-11-25T10:34:18.015Z,99816
2017-11-25T10:35:18.110Z,99828
2017-11-25T10:36:17.301Z,99823
2017-11-25T10:37:18.345Z,99828
2017-11-25T10:38:18.276Z,99825
2017-11-25T10:39:18.293Z,99826
2017-11-25T10:40:18.352Z,99820
2017-11-25T10:41:18.469Z,99830
2017-11-25T10:42:17.506Z,99825
2017-11-25T10:43:18.484Z,99830
2017-11-25T10:44:17.672Z,99823
2017-11-25T10:45:18.743Z,99831
2017-11-25T10:46:17.829Z,99833
2017-11-25T10:47:18.830Z,99831
2017-11-25T10:48:18.741Z,99832
2017-11-25T10:49:18.793Z,99836
2017-11-25T10:50:18.856Z,99825
2017-11-25T10:51:18.902Z,99837
2017-11-25T10:52:17.994Z,99831
2017-11-25T10:53:18.992Z,99837
2017-11-25T10:55:19.025Z,99835
2017-11-25T10:56:18.142Z,99832
2017-11-25T10:57:19.298Z,99837
2017-11-25T10:58:19.294Z,99837
2017-11-25T10:59:19.345Z,99838
2017-11-25T11:00:19.388Z,99840
2017-11-25T11:01:18.467Z,99841
2017-11-25T11:02:19.541Z,99840
2017-11-25T11:03:19.604Z,99838
2017-11-25T11:04:19.564Z,99838
2017-11-25T11:05:18.659Z,99836
2017-11-25T11:06:19.650Z,99836
2017-11-25T11:07:18.838Z,99832
2017-11-25T11:08:19.898Z,99837
2017-11-25T11:09:19.008Z,99838
2017-11-25T11:10:19.948Z,99833
2017-11-25T11:11:19.169Z,99824
2017-11-25T11:12:20.140Z,99832
2017-11-25T11:13:19.324Z,99833
2017-11-25T11:14:20.317Z,99835
2017-11-25T11:15:19.418Z,99832
2017-11-25T11:16:20.426Z,99838
2017-11-25T11:17:19.547Z,99834
2017-11-25T11:18:20.492Z,99836
2017-11-25T11:19:19.677Z,99838
2017-11-25T11:20:20.546Z,99836
2017-11-25T11:21:19.701Z,99831
2017-11-25T11:22:19.689Z,99839
2017-11-25T11:23:20.697Z,99838
2017-11-25T11:24:19.785Z,99846
2017-11-25T11:25:20.768Z,99844
2017-11-25T11:26:20.793Z,99821
2017-11-25T11:27:20.821Z,99848
2017-11-25T11:28:19.861Z,99835
2017-11-25T11:29:20.989Z,99846
2017-11-25T11:30:21.035Z,99845
2017-11-25T11:31:19.986Z,99847
2017-11-25T11:32:21.040Z,99838
2017-11-25T11:33:21.192Z,99847
2017-11-25T11:34:21.296Z,99847
2017-11-25T11:35:20.338Z,99847
2017-11-25T11:36:21.324Z,99842
2017-11-25T11:37:20.395Z,99847
2017-11-25T11:38:20.333Z,99846
2017-11-25T11:39:21.356Z,99843
2017-11-25T11:40:20.579Z,99849
2017-11-25T11:41:20.556Z,99845
2017-11-25T11:42:21.672Z,99849
2017-11-25T11:43:20.737Z,99851
2017-11-25T11:44:21.662Z,99855
2017-11-25T11:45:21.785Z,99854
2017-11-25T11:46:21.830Z,99851
2017-11-25T11:47:20.949Z,99855
2017-11-25T11:48:21.831Z,99856
2017-11-25T11:49:20.977Z,99857
2017-11-25T11:50:21.897Z,99856
2017-11-25T11:51:21.087Z,99859
2017-11-25T11:52:22.094Z,99860
2017-11-25T11:53:22.029Z,99860
2017-11-25T11:54:22.138Z,99861
2017-11-25T11:55:22.217Z,99860
2017-11-25T11:56:22.293Z,99868
2017-11-25T11:57:21.429Z,99857
2017-11-25T11:58:21.457Z,99866
2017-11-25T11:59:22.350Z,99863
2017-11-25T12:00:22.397Z,99864
2017-11-25T12:01:21.588Z,99861
2017-11-25T12:02:21.588Z,99868
2017-11-25T12:03:22.581Z,99868
2017-11-25T12:04:22.665Z,99868
2017-11-25T12:05:21.821Z,99860
2017-11-25T12:06:22.720Z,99868
2017-11-25T12:07:21.903Z,99869
2017-11-25T12:08:21.976Z,99869
2017-11-25T12:09:22.976Z,99865
2017-11-25T12:10:23.024Z,99869
2017-11-25T12:11:22.149Z,99873
2017-11-25T12:12:23.217Z,99871
2017-11-25T12:13:22.291Z,99869
2017-11-25T12:14:23.369Z,99870
2017-11-25T12:15:22.431Z,99868
2017-11-25T12:16:22.527Z,99866
2017-11-25T12:17:22.465Z,99869
2017-11-25T12:18:22.593Z,99865
2017-11-25T12:19:22.578Z,99869
2017-11-25T12:20:23.711Z,99871
2017-11-25T12:21:22.830Z,99871
2017-11-25T12:22:22.725Z,99873
2017-11-25T12:23:22.857Z,99867
2017-11-25T12:24:22.761Z,99873
2017-11-25T12:25:23.733Z,99874
2017-11-25T12:26:22.819Z,99872
2017-11-25T12:27:22.890Z,99877
2017-11-25T12:28:22.944Z,99875
2017-11-25T12:29:23.085Z,99880
2017-11-25T12:30:23.386Z,99881
2017-11-25T12:31:24.145Z,99876
2017-11-25T12:32:23.245Z,99879
2017-11-25T12:33:24.292Z,99875
2017-11-25T12:34:24.201Z,99869
2017-11-25T12:35:24.402Z,99877
2017-11-25T12:36:24.341Z,99877
2017-11-25T12:37:23.476Z,99875
2017-11-25T12:38:23.441Z,99869
2017-11-25T12:39:24.503Z,99872
2017-11-25T12:40:24.478Z,99870
2017-11-25T12:41:23.540Z,99875
2017-11-25T12:42:23.669Z,99870
2017-11-25T12:43:24.725Z,99869
2017-11-25T12:44:23.761Z,99865
2017-11-25T12:45:23.796Z,99863
2017-11-25T12:46:24.897Z,99863
2017-11-25T12:47:24.032Z,99856
2017-11-25T12:48:24.924Z,99861
2017-11-25T12:49:24.158Z,99867
2017-11-25T12:50:25.061Z,99866
2017-11-25T12:51:25.222Z,99869
2017-11-25T12:52:24.145Z,99868
2017-11-25T12:53:25.134Z,99870
2017-11-25T12:54:24.177Z,99876
2017-11-25T12:55:25.162Z,99880